createdAt,value
2022-10-02T00:00:06.905Z,2.55
2022-10-02T00:02:42.711Z,2.15
2022-10-02T00:05:15.457Z,1.83
2022-10-02T00:07:48.308Z,2.40
2022-10-02T00:10:31.519Z,2.17
2022-10-02T00:13:01.983Z,2.65
2022-10-02T00:15:31.794Z,2.13
2022-10-02T00:18:04.149Z,2.20
2022-10-02T00:21:06.070Z,3.65
2022-10-02T00:23:40.459Z,3.90
2022-10-02T00:26:38.685Z,3.20
2022-10-02T00:29:46.301Z,3.78
2022-10-02T00:32:16.668Z,3.05
2022-10-02T00:34:56.220Z,2.55
2022-10-02T00:37:49.337Z,3.00
2022-10-02T00:41:03.648Z,2.63
2022-10-02T00:44:07.453Z,2.92
2022-10-02T00:46:51.701Z,2.70
2022-10-02T00:49:33.542Z,2.42
2022-10-02T00:52:09.407Z,2.40
2022-10-02T00:54:54.861Z,3.10
2022-10-02T00:57:33.520Z,2.03
2022-10-02T01:00:14.460Z,2.72
2022-10-02T01:02:49.975Z,2.50
2022-10-02T01:05:16.459Z,2.40
2022-10-02T01:07:49.056Z,2.22
2022-10-02T01:10:16.443Z,1.80
2022-10-02T01:12:43.049Z,2.55
2022-10-02T01:15:19.010Z,1.70
2022-10-02T01:17:50.885Z,2.10
2022-10-02T01:20:39.691Z,1.90
2022-10-02T01:23:42.213Z,2.25
2022-10-02T01:26:08.779Z,2.53
2022-10-02T01:28:36.317Z,1.98
2022-10-02T01:31:08.511Z,2.20
2022-10-02T01:33:36.305Z,2.53
2022-10-02T01:36:02.776Z,1.95
2022-10-02T01:38:30.005Z,2.20
2022-10-02T01:40:56.416Z,2.17
2022-10-02T01:43:30.679Z,2.38
2022-10-02T01:46:24.951Z,3.08
2022-10-02T01:48:56.141Z,2.38
2022-10-02T01:51:58.615Z,2.72
2022-10-02T01:54:43.725Z,1.65
2022-10-02T01:57:13.083Z,3.20
2022-10-02T02:00:01.133Z,1.52
2022-10-02T02:03:08.235Z,2.50
2022-10-02T02:05:37.469Z,1.92
2022-10-02T02:08:14.056Z,1.77
2022-10-02T02:11:09.077Z,2.30
2022-10-02T02:14:07.369Z,1.95
2022-10-02T02:16:44.861Z,1.77
2022-10-02T02:19:18.466Z,2.63
2022-10-02T02:21:54.114Z,2.47
2022-10-02T02:24:34.274Z,3.80
2022-10-02T02:27:02.598Z,2.30
2022-10-02T02:29:34.099Z,1.80
2022-10-02T02:32:05.709Z,2.15
2022-10-02T02:34:36.157Z,2.38
2022-10-02T02:37:08.321Z,2.40
2022-10-02T02:39:45.962Z,1.98
2022-10-02T02:42:17.802Z,2.05
2022-10-02T02:44:53.208Z,2.30
2022-10-02T02:47:24.307Z,2.28
2022-10-02T02:50:00.110Z,2.38
2022-10-02T02:52:31.720Z,2.05
2022-10-02T02:55:06.020Z,2.50
2022-10-02T02:57:43.776Z,2.65
2022-10-02T03:00:12.178Z,2.53
2022-10-02T03:02:38.557Z,2.15
2022-10-02T03:05:13.225Z,2.05
2022-10-02T03:07:41.036Z,2.45
2022-10-02T03:10:21.131Z,2.35
2022-10-02T03:13:00.514Z,2.00
2022-10-02T03:15:46.666Z,2.13
2022-10-02T03:18:55.137Z,2.00
2022-10-02T03:21:30.587Z,2.55
2022-10-02T03:24:18.665Z,2.50
2022-10-02T03:26:55.584Z,2.22
2022-10-02T03:29:31.507Z,2.10
2022-10-02T03:31:59.665Z,3.22
2022-10-02T03:34:26.735Z,2.45
2022-10-02T03:36:53.219Z,2.30
2022-10-02T03:39:25.140Z,2.22
2022-10-02T03:41:53.176Z,2.67
2022-10-02T03:44:19.522Z,2.20
2022-10-02T03:46:46.024Z,2.42
2022-10-02T03:49:12.429Z,2.33
2022-10-02T03:51:38.892Z,2.25
2022-10-02T03:54:15.304Z,2.70
2022-10-02T03:56:51.774Z,2.22
2022-10-02T03:59:40.761Z,3.35
2022-10-02T04:02:46.900Z,2.65
2022-10-02T04:05:44.765Z,2.33
2022-10-02T04:08:36.010Z,2.42
2022-10-02T04:11:17.969Z,1.90
2022-10-02T04:13:57.328Z,2.92
2022-10-02T04:16:31.530Z,2.30
2022-10-02T04:19:03.815Z,3.17
2022-10-02T04:21:50.993Z,3.40
2022-10-02T04:24:32.308Z,2.75
2022-10-02T04:27:12.197Z,2.42
2022-10-02T04:29:45.789Z,2.42
2022-10-02T04:32:17.286Z,2.50
2022-10-02T04:34:43.917Z,1.90
2022-10-02T04:37:32.296Z,1.73
2022-10-02T04:40:16.996Z,2.15
2022-10-02T04:43:07.725Z,2.25
2022-10-02T04:45:58.807Z,1.70
2022-10-02T04:48:40.167Z,2.33
2022-10-02T04:51:14.363Z,2.40
2022-10-02T04:53:46.837Z,2.35
2022-10-02T04:56:44.503Z,1.92
2022-10-02T04:59:28.189Z,2.00
2022-10-02T05:02:10.875Z,1.90
2022-10-02T05:04:58.067Z,2.10
2022-10-02T05:07:39.104Z,1.98
2022-10-02T05:13:26.853Z,2.15
2022-10-02T05:16:18.961Z,2.70
2022-10-02T05:19:04.258Z,2.45
2022-10-02T05:21:52.568Z,2.83
2022-10-02T05:24:35.500Z,2.40
2022-10-02T05:27:13.364Z,2.20
2022-10-02T05:30:04.723Z,2.00
2022-10-02T05:33:04.921Z,2.97
2022-10-02T05:35:50.929Z,2.20
2022-10-02T05:38:23.046Z,2.78
2022-10-02T05:41:13.840Z,2.03
2022-10-02T05:43:52.456Z,2.20
2022-10-02T05:46:25.218Z,2.13
2022-10-02T05:48:57.635Z,1.88
2022-10-02T05:51:42.205Z,2.30
2022-10-02T05:54:42.940Z,3.47
2022-10-02T05:57:28.079Z,3.20
2022-10-02T06:00:20.710Z,3.10
2022-10-02T06:02:57.027Z,4.23
2022-10-02T06:05:45.173Z,3.15
2022-10-02T06:08:15.930Z,3.72
2022-10-02T06:10:48.559Z,3.25
2022-10-02T06:13:26.445Z,3.65
2022-10-02T06:16:27.073Z,3.72
2022-10-02T06:18:58.384Z,3.15
2022-10-02T06:21:53.431Z,2.95
2022-10-02T06:24:46.245Z,3.83
2022-10-02T06:27:39.006Z,3.50
2022-10-02T06:30:10.562Z,2.95
2022-10-02T06:32:45.668Z,3.67
2022-10-02T06:35:15.645Z,3.13
2022-10-02T06:38:06.742Z,3.17
2022-10-02T06:41:00.377Z,2.60
2022-10-02T06:46:14.304Z,2.88
2022-10-02T06:48:48.760Z,2.65
2022-10-02T06:51:35.037Z,2.17
2022-10-02T06:54:12.102Z,2.70
2022-10-02T06:57:03.994Z,2.53
2022-10-02T07:00:03.331Z,2.40
2022-10-02T07:02:38.981Z,2.38
2022-10-02T07:05:29.786Z,2.40
2022-10-02T07:08:10.066Z,3.22
2022-10-02T07:11:24.100Z,3.13
2022-10-02T07:16:39.816Z,1.95
2022-10-02T07:19:39.756Z,2.70
2022-10-02T07:22:26.155Z,2.40
2022-10-02T07:25:20.642Z,1.83
2022-10-02T07:27:57.170Z,2.35
2022-10-02T07:30:23.838Z,2.67
2022-10-02T07:32:57.379Z,1.90
2022-10-02T07:35:30.194Z,2.10
2022-10-02T07:38:43.543Z,2.05
2022-10-02T07:41:55.276Z,2.50
2022-10-02T07:44:57.360Z,2.15
2022-10-02T07:47:53.495Z,1.85
2022-10-02T07:50:50.203Z,2.15
2022-10-02T07:53:46.565Z,2.10
2022-10-02T07:56:19.903Z,2.72
2022-10-02T07:58:54.594Z,1.77
2022-10-02T08:01:25.990Z,1.65
2022-10-02T08:03:58.049Z,1.67
2022-10-02T08:06:25.478Z,1.83
2022-10-02T08:09:22.436Z,1.70
2022-10-02T08:11:50.748Z,1.92
2022-10-02T08:14:22.594Z,1.67
2022-10-02T08:16:51.954Z,1.95
2022-10-02T08:19:33.778Z,1.35
2022-10-02T08:22:35.599Z,2.42
2022-10-02T08:25:07.927Z,1.80
2022-10-02T08:27:45.768Z,2.55
2022-10-02T08:30:15.065Z,2.58
2022-10-02T08:32:41.777Z,1.80
2022-10-02T08:35:19.458Z,2.17
2022-10-02T08:38:05.188Z,1.80
2022-10-02T08:41:04.803Z,2.58
2022-10-02T08:44:02.829Z,2.08
2022-10-02T08:46:50.028Z,1.67
2022-10-02T08:49:33.586Z,1.60
2022-10-02T08:52:25.024Z,2.08
2022-10-02T08:55:03.519Z,2.47
2022-10-02T08:57:48.392Z,1.70
2022-10-02T09:00:21.176Z,1.50
2022-10-02T09:03:10.008Z,1.98
2022-10-02T09:06:04.428Z,2.05
2022-10-02T09:09:02.701Z,2.30
2022-10-02T09:11:45.137Z,1.90
2022-10-02T09:14:43.541Z,1.45
2022-10-02T09:17:17.577Z,2.80
2022-10-02T09:19:55.028Z,2.20
2022-10-02T09:22:40.018Z,2.22
2022-10-02T09:25:22.325Z,2.50
2022-10-02T09:28:06.850Z,1.95
2022-10-02T09:31:05.866Z,2.30
2022-10-02T09:34:35.216Z,2.15
2022-10-02T09:37:31.038Z,1.90
2022-10-02T09:39:57.335Z,2.10
2022-10-02T09:42:29.605Z,2.13
2022-10-02T09:45:22.492Z,1.90
2022-10-02T09:48:30.373Z,1.73
2022-10-02T09:51:18.574Z,1.80
2022-10-02T09:54:14.597Z,1.80
2022-10-02T09:57:11.444Z,1.67
2022-10-02T09:59:50.038Z,1.95
2022-10-02T10:02:48.751Z,1.90
2022-10-02T10:05:24.390Z,2.58
2022-10-02T10:08:13.965Z,1.70
2022-10-02T10:11:13.443Z,1.48
2022-10-02T10:14:18.177Z,1.50
2022-10-02T10:17:05.645Z,1.65
2022-10-02T10:19:47.089Z,1.63
2022-10-02T10:22:44.753Z,1.30
2022-10-02T10:25:39.335Z,1.30
2022-10-02T10:28:45.232Z,1.88
2022-10-02T10:31:50.713Z,1.33
2022-10-02T10:34:46.040Z,1.45
2022-10-02T10:38:06.429Z,1.48
2022-10-02T10:40:46.309Z,1.70
2022-10-02T10:43:36.424Z,1.80
2022-10-02T10:46:24.717Z,2.13
2022-10-02T10:49:11.637Z,1.15
2022-10-02T10:52:03.844Z,0.95
2022-10-02T10:55:07.830Z,0.98
2022-10-02T10:57:41.539Z,2.00
2022-10-02T11:00:26.407Z,1.08
2022-10-02T11:03:08.338Z,1.10
2022-10-02T11:06:03.590Z,1.23
2022-10-02T11:08:55.416Z,1.10
2022-10-02T11:11:32.830Z,1.30
2022-10-02T11:14:26.623Z,1.00
2022-10-02T11:17:14.790Z,1.08
2022-10-02T11:19:44.027Z,1.00
2022-10-02T11:22:40.211Z,1.20
2022-10-02T11:25:44.891Z,1.13
2022-10-02T11:28:30.028Z,1.58
2022-10-02T11:31:17.664Z,0.90
2022-10-02T11:34:17.204Z,1.42
2022-10-02T11:36:55.638Z,1.25
2022-10-02T11:39:49.744Z,1.45
2022-10-02T11:42:55.884Z,0.80
2022-10-02T11:45:43.632Z,1.10
2022-10-02T11:48:47.615Z,0.88
2022-10-02T11:54:30.665Z,1.05
2022-10-02T11:57:15.974Z,1.08
2022-10-02T12:00:05.826Z,0.90
2022-10-02T12:02:56.280Z,0.80
2022-10-02T12:05:55.673Z,1.05
2022-10-02T12:09:01.387Z,0.85
2022-10-02T12:12:00.660Z,1.00
2022-10-02T12:14:42.840Z,0.75
2022-10-02T12:17:40.638Z,0.60
2022-10-02T12:20:47.158Z,0.85
2022-10-02T12:23:46.650Z,1.05
2022-10-02T12:26:59.200Z,0.82
2022-10-02T12:30:02.377Z,1.35
2022-10-02T12:32:37.060Z,0.90
2022-10-02T12:35:15.843Z,0.90
2022-10-02T12:38:26.625Z,0.95
2022-10-02T12:41:20.678Z,1.10
2022-10-02T12:44:05.149Z,1.17
2022-10-02T12:47:01.706Z,1.20
2022-10-02T12:49:31.145Z,0.80
2022-10-02T12:52:30.292Z,1.27
2022-10-02T12:55:30.784Z,1.50
2022-10-02T12:57:58.549Z,1.65
2022-10-02T13:00:26.795Z,1.35
2022-10-02T13:03:05.347Z,1.17
2022-10-02T13:05:46.047Z,1.00
2022-10-02T13:08:22.835Z,1.15
2022-10-02T13:10:57.264Z,0.90
2022-10-02T13:13:36.068Z,0.77
2022-10-02T13:16:31.506Z,0.80
2022-10-02T13:19:00.897Z,1.08
2022-10-02T13:21:46.768Z,0.88
2022-10-02T13:24:46.938Z,1.42
2022-10-02T13:27:31.567Z,1.17
2022-10-02T13:30:17.870Z,2.08
2022-10-02T13:33:09.669Z,1.52
2022-10-02T13:36:03.249Z,1.75
2022-10-02T13:41:17.961Z,1.20
2022-10-02T13:43:56.411Z,1.00
2022-10-02T13:46:46.370Z,1.20
2022-10-02T13:49:31.451Z,1.63
2022-10-02T13:52:05.325Z,1.00
2022-10-02T13:54:42.932Z,1.42
2022-10-02T13:57:45.405Z,1.40
2022-10-02T14:00:37.998Z,1.48
2022-10-02T14:03:36.182Z,1.10
2022-10-02T14:06:24.918Z,1.10
2022-10-02T14:09:16.045Z,1.30
2022-10-02T14:12:10.181Z,0.90
2022-10-02T14:14:55.471Z,0.90
2022-10-02T14:17:50.259Z,1.00
2022-10-02T14:20:30.953Z,0.95
2022-10-02T14:23:12.594Z,1.52
2022-10-02T14:25:53.825Z,1.52
2022-10-02T14:28:36.526Z,1.48
2022-10-02T14:31:33.537Z,1.10
2022-10-02T14:34:10.824Z,1.27
2022-10-02T14:36:52.538Z,1.40
2022-10-02T14:39:35.606Z,1.10
2022-10-02T14:42:29.723Z,1.05
2022-10-02T14:45:08.362Z,1.10
2022-10-02T14:47:46.228Z,1.20
2022-10-02T14:50:21.536Z,1.40
2022-10-02T14:53:33.958Z,1.40
2022-10-02T14:56:44.006Z,1.65
2022-10-02T14:59:10.390Z,1.35
2022-10-02T15:02:13.876Z,2.22
2022-10-02T15:05:28.385Z,2.05
2022-10-02T15:07:56.316Z,1.52
2022-10-02T15:10:26.970Z,1.38
2022-10-02T15:13:10.336Z,1.13
2022-10-02T15:16:11.878Z,2.80
2022-10-02T15:18:47.593Z,1.70
2022-10-02T15:21:32.136Z,1.52
2022-10-02T15:23:59.627Z,1.30
2022-10-02T15:26:59.188Z,1.02
2022-10-02T15:29:33.921Z,1.48
2022-10-02T15:32:41.816Z,1.77
2022-10-02T15:35:27.274Z,1.55
2022-10-02T15:38:18.549Z,1.15
2022-10-02T15:41:04.126Z,1.60
2022-10-02T15:43:36.123Z,1.92
2022-10-02T15:46:11.466Z,1.90
2022-10-02T15:48:56.984Z,1.58
2022-10-02T15:52:02.466Z,1.90
2022-10-02T15:54:46.103Z,1.92
2022-10-02T15:57:43.508Z,2.10
2022-10-02T16:00:14.025Z,1.80
2022-10-02T16:03:12.092Z,2.15
2022-10-02T16:06:03.464Z,2.65
2022-10-02T16:08:59.898Z,2.40
2022-10-02T16:11:57.802Z,2.05
2022-10-02T16:14:42.480Z,3.10
2022-10-02T16:17:33.153Z,3.15
2022-10-02T16:20:14.273Z,3.03
2022-10-02T16:23:01.901Z,3.22
2022-10-02T16:26:08.658Z,2.38
2022-10-02T16:28:49.525Z,3.15
2022-10-02T16:31:28.051Z,2.13
2022-10-02T16:34:02.760Z,2.20
2022-10-02T16:36:33.445Z,1.73
2022-10-02T16:39:31.683Z,2.00
2022-10-02T16:42:28.987Z,2.70
2022-10-02T16:45:24.034Z,1.80
2022-10-02T16:48:02.346Z,2.22
2022-10-02T16:50:47.120Z,2.53
2022-10-02T16:53:25.071Z,2.15
2022-10-02T16:56:05.935Z,2.67
2022-10-02T16:58:43.218Z,1.98
2022-10-02T17:01:24.190Z,3.50
2022-10-02T17:04:24.756Z,2.55
2022-10-02T17:07:02.778Z,2.17
2022-10-02T17:09:44.090Z,2.35
2022-10-02T17:12:21.016Z,3.45
2022-10-02T17:15:00.867Z,5.32
2022-10-02T17:17:42.426Z,4.80
2022-10-02T17:20:17.369Z,6.55
2022-10-02T17:23:21.792Z,6.38
2022-10-02T17:26:08.636Z,4.90
2022-10-02T17:28:44.757Z,3.00
2022-10-02T17:31:34.378Z,3.22
2022-10-02T17:34:26.910Z,2.92
2022-10-02T17:37:04.277Z,4.22
2022-10-02T17:39:55.221Z,6.50
2022-10-02T17:42:32.583Z,6.40
2022-10-02T17:45:07.132Z,5.07
2022-10-02T17:47:47.033Z,3.42
2022-10-02T17:50:27.057Z,3.33
2022-10-02T17:53:23.623Z,3.45
2022-10-02T17:56:30.382Z,3.13
2022-10-02T17:59:27.909Z,3.50
2022-10-02T18:02:06.262Z,3.33
2022-10-02T18:04:49.598Z,3.03
2022-10-02T18:10:10.208Z,3.72
2022-10-02T18:12:56.664Z,3.97
2022-10-02T18:15:23.499Z,4.10
2022-10-02T18:18:17.792Z,3.78
2022-10-02T18:20:50.116Z,3.45
2022-10-02T18:23:50.746Z,3.53
2022-10-02T18:26:47.390Z,3.00
2022-10-02T18:29:23.355Z,4.63
2022-10-02T18:32:07.388Z,4.00
2022-10-02T18:34:53.327Z,3.83
2022-10-02T18:37:25.588Z,3.70
2022-10-02T18:40:10.987Z,3.45
2022-10-02T18:42:56.942Z,3.63
2022-10-02T18:45:43.851Z,4.63
2022-10-02T18:48:25.254Z,3.10
2022-10-02T18:51:25.020Z,3.40
2022-10-02T18:54:45.734Z,3.10
2022-10-02T18:57:25.488Z,3.55
2022-10-02T19:00:01.701Z,3.17
2022-10-02T19:02:53.025Z,3.70
2022-10-02T19:05:36.981Z,3.15
2022-10-02T19:08:03.284Z,3.50
2022-10-02T19:10:32.739Z,3.22
2022-10-02T19:13:18.197Z,3.13
2022-10-02T19:15:46.988Z,3.70
2022-10-02T19:18:25.618Z,3.58
2022-10-02T19:21:08.151Z,3.17
2022-10-02T19:24:02.665Z,3.80
2022-10-02T19:26:33.109Z,4.63
2022-10-02T19:29:05.543Z,3.50
2022-10-02T19:31:39.219Z,4.38
2022-10-02T19:34:15.801Z,3.50
2022-10-02T19:36:50.200Z,4.32
2022-10-02T19:39:23.938Z,3.83
2022-10-02T19:41:55.758Z,3.88
2022-10-02T19:44:28.669Z,3.97
2022-10-02T19:46:58.617Z,4.00
2022-10-02T19:53:06.729Z,4.32
2022-10-02T19:55:39.120Z,4.70
2022-10-02T19:58:14.628Z,2.60
2022-10-02T20:00:42.151Z,3.63
2022-10-02T20:03:16.462Z,4.55
2022-10-02T20:05:44.769Z,4.10
2022-10-02T20:08:22.454Z,4.47
2022-10-02T20:11:03.745Z,4.57
2022-10-02T20:13:37.655Z,3.58
2022-10-02T20:16:35.429Z,4.43
2022-10-02T20:19:04.671Z,4.07
2022-10-02T20:21:41.814Z,4.93
2022-10-02T20:24:24.340Z,3.90
2022-10-02T20:26:55.276Z,4.07
2022-10-02T20:29:29.835Z,4.10
2022-10-02T20:32:05.358Z,4.20
2022-10-02T20:34:39.303Z,5.00
2022-10-02T20:37:09.850Z,5.57
2022-10-02T20:39:46.956Z,6.30
2022-10-02T20:42:23.115Z,6.10
2022-10-02T20:44:50.628Z,5.60
2022-10-02T20:47:40.497Z,5.35
2022-10-02T20:50:33.068Z,6.13
2022-10-02T20:53:35.685Z,4.90
2022-10-02T20:56:21.026Z,4.50
2022-10-02T20:58:56.322Z,5.22
2022-10-02T21:01:45.285Z,5.75
2022-10-02T21:04:28.213Z,6.18
2022-10-02T21:07:06.596Z,4.95
2022-10-02T21:10:05.322Z,4.80
2022-10-02T21:12:32.090Z,5.88
2022-10-02T21:15:17.859Z,4.68
2022-10-02T21:18:14.740Z,4.95
2022-10-02T21:21:29.489Z,4.72
2022-10-02T21:24:16.129Z,5.18
2022-10-02T21:26:58.678Z,4.75
2022-10-02T21:30:03.653Z,5.00
2022-10-02T21:32:39.417Z,5.20
2022-10-02T21:35:08.036Z,6.18
2022-10-02T21:38:04.951Z,10.23
2022-10-02T21:41:05.500Z,17.60
2022-10-02T21:43:47.350Z,9.38
2022-10-02T21:46:43.792Z,6.25
2022-10-02T21:49:53.158Z,5.70
2022-10-02T21:52:51.191Z,5.57
2022-10-02T21:55:30.242Z,4.57
2022-10-02T21:58:34.039Z,4.90
2022-10-02T22:04:10.906Z,5.00
2022-10-02T22:06:51.217Z,5.40
2022-10-02T22:09:26.867Z,5.63
2022-10-02T22:14:35.260Z,4.50
2022-10-02T22:17:38.880Z,4.40
2022-10-02T22:20:27.160Z,4.28
2022-10-02T22:23:32.434Z,4.07
2022-10-02T22:26:25.243Z,4.57
2022-10-02T22:29:07.005Z,3.45
2022-10-02T22:31:36.759Z,4.50
2022-10-02T22:34:22.627Z,4.05
2022-10-02T22:37:12.860Z,4.72
2022-10-02T22:40:23.177Z,4.20
2022-10-02T22:42:55.944Z,4.65
2022-10-02T22:45:39.701Z,4.45
2022-10-02T22:48:13.126Z,4.30
2022-10-02T22:51:03.170Z,4.30
2022-10-02T22:53:37.521Z,4.95
2022-10-02T22:56:20.078Z,4.60
2022-10-02T22:59:12.708Z,3.90
2022-10-02T23:01:51.372Z,5.03
2022-10-02T23:04:30.582Z,3.63
2022-10-02T23:07:13.106Z,3.70
2022-10-02T23:09:48.313Z,2.85
2022-10-02T23:12:26.609Z,4.07
2022-10-02T23:15:02.762Z,4.22
2022-10-02T23:17:43.234Z,4.90
2022-10-02T23:20:15.753Z,4.80
2022-10-02T23:22:56.916Z,5.10
2022-10-02T23:25:48.241Z,5.13
2022-10-02T23:28:20.727Z,5.45
2022-10-02T23:31:01.238Z,5.18
2022-10-02T23:33:46.677Z,5.95
2022-10-02T23:36:27.263Z,6.03
2022-10-02T23:39:02.528Z,5.28
2022-10-02T23:41:46.365Z,6.25
2022-10-02T23:44:39.943Z,5.60
2022-10-02T23:49:52.262Z,5.80
2022-10-02T23:52:57.490Z,5.43
2022-10-02T23:55:41.270Z,5.40
2022-10-02T23:58:23.699Z,5.97
